Time;durP1;ratioP1;P1;durP2;ratioP2;P2;SDS_P1;SDS_P2;PMS_P1;PMS_P2;Temp;Humidity;BMP_temperature;BMP_pressure;BME280_temperature;BME280_humidity;BME280_pressure;Samples;Min_cycle;Max_cycle;Signal;HPM_P1;HPM_P2
2022/10/23 00:00:23;;;;;;;4.17;2.87;;;;;;;13.27;nan;99501.03;4961584;28;21090;-78
2022/10/23 00:02:53;;;;;;;7.50;2.70;;;;;;;13.28;nan;99490.38;4961771;28;20541;-77
2022/10/23 00:05:19;;;;;;;5.38;3.05;;;;;;;13.30;nan;99484.13;4958679;28;20231;-78
2022/10/23 00:07:49;;;;;;;2.30;2.10;;;;;;;13.31;nan;99476.09;4961653;28;20242;-78
2022/10/23 00:10:14;;;;;;;8.38;2.65;;;;;;;13.32;nan;99472.50;4960863;28;20346;-78
2022/10/23 00:12:40;;;;;;;3.10;2.27;;;;;;;13.32;nan;99477.78;4960376;28;20191;-78
2022/10/23 00:15:05;;;;;;;6.67;3.43;;;;;;;13.31;nan;99470.81;4961975;28;20204;-77
2022/10/23 00:17:33;;;;;;;3.27;2.97;;;;;;;13.34;nan;99467.09;4959499;28;20656;-78
2022/10/23 00:19:59;;;;;;;4.80;2.90;;;;;;;13.35;nan;99463.53;4959996;28;20859;-77
2022/10/23 00:22:25;;;;;;;5.43;2.80;;;;;;;13.33;nan;99458.34;4958665;28;20776;-78
2022/10/23 00:24:50;;;;;;;3.20;2.27;;;;;;;13.32;nan;99464.59;4974704;28;20271;-78
2022/10/23 00:27:18;;;;;;;2.30;1.90;;;;;;;13.32;nan;99469.03;4960886;28;20189;-78
2022/10/23 00:29:44;;;;;;;3.33;2.60;;;;;;;13.31;nan;99473.44;4974909;28;20192;-77
2022/10/23 00:32:09;;;;;;;5.00;2.70;;;;;;;13.29;nan;99467.47;4958898;28;20180;-77
2022/10/23 00:34:35;;;;;;;6.03;3.17;;;;;;;13.28;nan;99469.28;4961034;28;20454;-78
2022/10/23 00:37:02;;;;;;;5.53;2.72;;;;;;;13.26;nan;99462.44;4958816;28;20673;-78
2022/10/23 00:39:27;;;;;;;4.20;2.87;;;;;;;13.24;nan;99459.88;4957086;28;20200;-78
2022/10/23 00:41:52;;;;;;;4.03;2.93;;;;;;;13.26;nan;99463.28;4961514;28;20212;-78
2022/10/23 00:44:21;;;;;;;5.03;2.87;;;;;;;13.28;nan;99468.41;4961882;28;20185;-77
2022/10/23 00:46:47;;;;;;;2.67;2.40;;;;;;;13.28;nan;99468.41;4958317;28;20216;-78
2022/10/23 00:49:14;;;;;;;4.30;2.42;;;;;;;13.26;nan;99465.06;4958281;28;20199;-77
2022/10/23 00:51:43;;;;;;;2.25;2.05;;;;;;;13.20;nan;99458.41;4959440;28;20184;-77
2022/10/23 00:54:11;;;;;;;3.05;2.28;;;;;;;13.16;nan;99456.16;4959687;28;20707;-77
2022/10/23 00:56:39;;;;;;;4.97;2.05;;;;;;;13.13;nan;99453.75;4960379;28;20417;-78
2022/10/23 00:59:05;;;;;;;17.75;2.90;;;;;;;13.09;nan;99461.03;4975810;28;20624;-77
2022/10/23 01:01:31;;;;;;;4.25;2.20;;;;;;;13.07;nan;99455.91;4960685;28;20617;-78
2022/10/23 01:03:56;;;;;;;5.20;2.73;;;;;;;13.09;nan;99447.03;4958294;28;20823;-78
2022/10/23 01:06:30;;;;;;;4.03;2.27;;;;;;;13.10;nan;99446.09;4958513;28;20244;-78
2022/10/23 01:09:18;;;;;;;7.05;2.50;;;;;;;13.11;nan;99445.13;4960823;28;20927;-78
2022/10/23 01:12:25;;;;;;;4.57;2.22;;;;;;;13.07;nan;99450.63;4960008;28;20719;-77
2022/10/23 01:15:10;;;;;;;5.05;2.83;;;;;;;13.09;nan;99453.13;4975529;28;20195;-78
2022/10/23 01:17:44;;;;;;;3.28;2.60;;;;;;;13.09;nan;99457.56;4966172;28;20831;-78
2022/10/23 01:20:41;;;;;;;3.30;2.65;;;;;;;13.10;nan;99449.56;4972987;28;20629;-78
2022/10/23 01:23:22;;;;;;;3.65;2.90;;;;;;;13.10;nan;99441.66;4947885;28;20788;-77
2022/10/23 01:26:14;;;;;;;4.72;3.40;;;;;;;13.11;nan;99447.75;4959514;28;20208;-77
2022/10/23 01:28:57;;;;;;;3.28;2.53;;;;;;;13.11;nan;99445.94;4948663;28;20192;-77
2022/10/23 01:31:58;;;;;;;2.47;2.28;;;;;;;13.11;nan;99447.75;4958918;28;20181;-77
2022/10/23 01:34:34;;;;;;;6.90;2.55;;;;;;;13.11;nan;99438.03;4958509;28;20669;-77
2022/10/23 01:37:02;;;;;;;4.90;2.92;;;;;;;13.11;nan;99439.84;4957750;28;20196;-77
2022/10/23 01:39:39;;;;;;;2.33;1.90;;;;;;;13.10;nan;99431.09;4955985;28;20184;-77
2022/10/23 01:42:11;;;;;;;3.35;2.30;;;;;;;13.10;nan;99436.38;4991302;28;20227;-77
2022/10/23 01:44:48;;;;;;;3.75;3.03;;;;;;;13.06;nan;99433.09;4977723;28;20187;-78
2022/10/23 01:47:17;;;;;;;5.93;2.50;;;;;;;13.02;nan;99431.69;4978883;28;20196;-78
2022/10/23 01:50:04;;;;;;;3.88;2.50;;;;;;;13.00;nan;99427.47;4976431;28;20245;-78
2022/10/23 01:52:29;;;;;;;6.15;2.60;;;;;;;12.96;nan;99421.63;4994172;28;20195;-77
2022/10/23 01:54:59;;;;;;;5.73;2.60;;;;;;;12.91;nan;99418.50;4976814;28;20372;-78
2022/10/23 01:57:28;;;;;;;7.22;3.60;;;;;;;12.91;nan;99414.97;4978785;28;20443;-78
2022/10/23 02:00:02;;;;;;;2.95;2.60;;;;;;;12.91;nan;99414.97;4976386;28;20214;-77
2022/10/23 02:02:31;;;;;;;3.75;2.53;;;;;;;12.92;nan;99412.25;4978185;28;20203;-77
2022/10/23 02:05:08;;;;;;;3.95;2.70;;;;;;;12.92;nan;99406.97;4975992;28;21064;-77
2022/10/23 02:07:35;;;;;;;6.90;2.42;;;;;;;12.94;nan;99406.88;4977867;28;20215;-78
2022/10/23 02:10:03;;;;;;;6.15;3.00;;;;;;;12.91;nan;99409.72;4977177;28;20476;-78
2022/10/23 02:12:48;;;;;;;2.72;2.35;;;;;;;12.89;nan;99409.00;4991418;28;20800;-77
2022/10/23 02:15:25;;;;;;;12.15;4.07;;;;;;;12.85;nan;99397.84;4994520;28;20266;-77
2022/10/23 02:17:57;;;;;;;4.05;2.70;;;;;;;12.79;nan;99388.59;4994304;28;20187;-77
2022/10/23 02:20:36;;;;;;;2.95;2.65;;;;;;;12.75;nan;99394.25;4975978;28;20195;-78
2022/10/23 02:23:31;;;;;;;5.63;2.65;;;;;;;12.71;nan;99393.63;4978264;28;20302;-77
2022/10/23 02:26:07;;;;;;;6.38;2.70;;;;;;;12.67;nan;99388.72;4978631;28;20208;-78
2022/10/23 02:28:43;;;;;;;4.15;2.65;;;;;;;12.67;nan;99392.19;4977746;28;20192;-77
2022/10/23 02:31:12;;;;;;;3.17;2.13;;;;;;;12.64;nan;99397.69;4976055;28;20656;-77
2022/10/23 02:33:39;;;;;;;3.35;2.38;;;;;;;12.62;nan;99386.44;4977953;28;20278;-78
2022/10/23 02:36:05;;;;;;;9.68;2.70;;;;;;;12.61;nan;99398.78;4977807;28;20783;-77
2022/10/23 02:38:40;;;;;;;5.60;2.70;;;;;;;12.57;nan;99385.94;4976307;28;20272;-78
2022/10/23 02:41:23;;;;;;;5.43;2.88;;;;;;;12.57;nan;99384.13;4978512;28;20434;-77
2022/10/23 02:44:09;;;;;;;3.92;2.30;;;;;;;12.59;nan;99381.41;4978907;28;20184;-77
2022/10/23 02:46:44;;;;;;;5.28;2.75;;;;;;;12.59;nan;99373.50;4992292;28;20758;-77
2022/10/23 02:49:33;;;;;;;2.97;2.40;;;;;;;12.54;nan;99362.47;4991928;28;20700;-77
2022/10/23 02:52:22;;;;;;;5.95;2.50;;;;;;;12.54;nan;99365.09;4945881;28;20204;-77
2022/10/23 02:55:21;;;;;;;3.50;2.30;;;;;;;12.53;nan;99359.00;4977124;28;20222;-77
2022/10/23 02:58:26;;;;;;;5.90;2.40;;;;;;;12.52;nan;99357.28;4976971;28;20274;-77
2022/10/23 03:01:02;;;;;;;3.17;2.60;;;;;;;12.51;nan;99353.00;4983669;28;20208;-78
2022/10/23 03:03:44;;;;;;;4.68;2.83;;;;;;;12.49;nan;99349.63;4976000;28;20207;-77
2022/10/23 03:06:10;;;;;;;6.15;2.03;;;;;;;12.49;nan;99351.44;4978074;28;20631;-77
2022/10/23 03:08:52;;;;;;;2.10;1.90;;;;;;;12.49;nan;99352.25;4976484;28;20687;-77
2022/10/23 03:11:18;;;;;;;4.63;2.05;;;;;;;12.50;nan;99348.69;4975135;28;20416;-78
2022/10/23 03:13:44;;;;;;;3.30;2.30;;;;;;;12.52;nan;99352.03;4972807;28;20660;-77
2022/10/23 03:16:09;;;;;;;3.47;2.23;;;;;;;12.51;nan;99344.25;4979024;28;20852;-78
2022/10/23 03:18:35;;;;;;;2.43;1.77;;;;;;;12.45;nan;99347.31;4992167;28;20550;-77
2022/10/23 03:21:01;;;;;;;1.70;1.33;;;;;;;12.40;nan;99342.44;4979728;28;20203;-78
2022/10/23 03:23:27;;;;;;;2.57;1.80;;;;;;;12.36;nan;99351.50;4995201;28;20211;-78
2022/10/23 03:25:53;;;;;;;4.17;1.87;;;;;;;12.32;nan;99350.06;4981345;28;20207;-78
2022/10/23 03:28:38;;;;;;;3.22;2.17;;;;;;;12.27;nan;99346.94;4996571;28;20188;-78
2022/10/23 03:31:04;;;;;;;1.90;1.60;;;;;;;12.26;nan;99343.47;4981976;28;20186;-78
2022/10/23 03:33:30;;;;;;;2.10;1.70;;;;;;;12.26;nan;99353.13;4977937;28;20179;-78
2022/10/23 03:36:04;;;;;;;2.85;1.75;;;;;;;12.23;nan;99343.66;4977656;28;20225;-78
2022/10/23 03:38:31;;;;;;;5.88;1.63;;;;;;;12.21;nan;99342.97;4982596;28;20234;-78
2022/10/23 03:40:56;;;;;;;2.47;1.30;;;;;;;12.20;nan;99343.91;4981873;28;20191;-78
2022/10/23 03:43:22;;;;;;;3.30;1.77;;;;;;;12.19;nan;99336.97;4980201;28;20339;-78
2022/10/23 03:45:47;;;;;;;5.30;1.97;;;;;;;12.20;nan;99335.16;4978652;28;20210;-78
2022/10/23 03:48:15;;;;;;;2.25;1.52;;;;;;;12.18;nan;99338.78;4978985;28;20646;-78
2022/10/23 03:50:42;;;;;;;3.33;1.80;;;;;;;12.18;nan;99337.94;4998209;28;20183;-78
2022/10/23 03:53:08;;;;;;;1.77;1.63;;;;;;;12.16;nan;99337.22;4972626;28;20915;-78
2022/10/23 03:55:33;;;;;;;2.10;1.90;;;;;;;12.12;nan;99333.97;4997367;28;20222;-78
2022/10/23 03:57:59;;;;;;;9.20;1.80;;;;;;;12.11;nan;99329.63;4974170;28;20192;-78
2022/10/23 04:00:25;;;;;;;1.95;1.60;;;;;;;12.07;nan;99328.19;4981543;28;20414;-78
2022/10/23 04:02:51;;;;;;;7.70;2.47;;;;;;;12.05;nan;99330.09;4984536;28;20195;-78
2022/10/23 04:05:18;;;;;;;4.03;2.53;;;;;;;12.04;nan;99332.84;4982750;28;20231;-78
2022/10/23 04:07:52;;;;;;;2.70;2.22;;;;;;;12.05;nan;99326.63;4981953;28;21054;-78
2022/10/23 04:10:18;;;;;;;2.20;1.90;;;;;;;12.04;nan;99327.56;4977792;28;20431;-78
2022/10/23 04:12:44;;;;;;;3.80;2.20;;;;;;;12.01;nan;99326.00;4981045;28;20435;-78
2022/10/23 04:15:10;;;;;;;4.10;2.90;;;;;;;11.98;nan;99320.97;4997898;28;20639;-78
2022/10/23 04:17:36;;;;;;;5.83;2.30;;;;;;;11.99;nan;99324.44;4979277;28;20212;-78
2022/10/23 04:20:03;;;;;;;3.47;2.03;;;;;;;11.96;nan;99317.59;4983840;28;20469;-78
2022/10/23 04:22:29;;;;;;;4.00;2.35;;;;;;;11.92;nan;99318.81;4980510;28;20216;-78
2022/10/23 04:25:25;;;;;;;5.07;3.07;;;;;;;11.87;nan;99326.19;4989811;28;20553;-78
2022/10/23 04:27:51;;;;;;;4.00;3.13;;;;;;;11.84;nan;99324.59;4971592;28;20282;-76
2022/10/23 04:30:16;;;;;;;2.20;1.93;;;;;;;11.85;nan;99326.25;4994140;28;20214;-77
2022/10/23 04:32:50;;;;;;;2.65;2.20;;;;;;;11.85;nan;99330.69;4980660;28;20195;-76
2022/10/23 04:35:16;;;;;;;3.38;2.25;;;;;;;11.83;nan;99324.72;4977334;28;20460;-76
2022/10/23 04:37:41;;;;;;;4.03;3.65;;;;;;;11.81;nan;99324.81;4978923;28;20204;-76
2022/10/23 04:40:08;;;;;;;2.70;2.50;;;;;;;11.80;nan;99322.28;4979860;28;20191;-76
2022/10/23 04:42:35;;;;;;;5.70;3.40;;;;;;;11.79;nan;99318.81;4979938;28;20218;-76
2022/10/23 04:45:01;;;;;;;3.90;2.50;;;;;;;11.79;nan;99315.34;4978747;28;20295;-76
2022/10/23 04:47:26;;;;;;;6.27;3.10;;;;;;;11.81;nan;99324.00;4974759;28;20196;-76
2022/10/23 04:49:57;;;;;;;4.22;3.20;;;;;;;11.82;nan;99323.03;4979325;28;20433;-76
2022/10/23 04:52:41;;;;;;;5.90;2.88;;;;;;;11.85;nan;99320.16;4977708;28;20206;-76
2022/10/23 04:55:25;;;;;;;2.95;2.65;;;;;;;11.85;nan;99310.47;4981518;28;20262;-76
2022/10/23 04:58:05;;;;;;;5.05;2.50;;;;;;;11.85;nan;99309.63;4972204;28;20188;-76
2022/10/23 05:00:31;;;;;;;3.70;2.70;;;;;;;11.84;nan;99306.16;4978330;28;20192;-76
2022/10/23 05:02:56;;;;;;;6.43;4.70;;;;;;;11.82;nan;99307.22;4979559;28;20196;-76
2022/10/23 05:05:22;;;;;;;9.33;3.40;;;;;;;11.78;nan;99301.38;4978387;28;20239;-76
2022/10/23 05:07:55;;;;;;;5.90;3.90;;;;;;;11.77;nan;99306.72;4986490;23;20241;-78
2022/10/23 05:10:38;;;;;;;6.43;3.22;;;;;;;11.74;nan;99299.91;4960863;28;20462;-79
2022/10/23 05:13:11;;;;;;;4.78;4.28;;;;;;;11.72;nan;99320.25;4967691;28;20177;-77
2022/10/23 05:15:39;;;;;;;5.10;3.47;;;;;;;11.72;nan;99317.63;4965794;28;20192;-79
2022/10/23 05:18:17;;;;;;;4.57;4.07;;;;;;;11.69;nan;99300.25;4964203;28;20400;-78
2022/10/23 05:20:47;;;;;;;4.00;3.25;;;;;;;11.59;nan;99291.34;4966043;28;20211;-76
2022/10/23 05:23:15;;;;;;;4.57;3.00;;;;;;;11.55;nan;99304.81;4969137;28;20232;-77
2022/10/23 05:25:50;;;;;;;4.88;2.85;;;;;;;11.52;nan;99298.81;4967724;28;20287;-77
2022/10/23 05:28:16;;;;;;;2.95;2.67;;;;;;;11.49;nan;99288.53;4967262;28;20592;-78
2022/10/23 05:30:43;;;;;;;3.20;2.70;;;;;;;11.48;nan;99275.50;4966004;28;20180;-78
2022/10/23 05:33:12;;;;;;;3.25;2.60;;;;;;;11.47;nan;99316.72;4963791;28;20222;-77
2022/10/23 05:35:43;;;;;;;4.47;2.90;;;;;;;11.45;nan;99323.03;4963235;28;20186;-77
2022/10/23 05:38:10;;;;;;;4.80;3.38;;;;;;;11.40;nan;99298.91;4966874;28;20211;-77
2022/10/23 05:40:36;;;;;;;4.40;2.90;;;;;;;11.35;nan;99303.66;4960858;28;20334;-78
2022/10/23 05:43:06;;;;;;;3.83;3.50;;;;;;;11.33;nan;99329.19;4959667;28;20244;-77
2022/10/23 05:46:04;;;;;;;3.75;2.40;;;;;;;11.30;nan;99296.91;4924323;28;20345;-77
2022/10/23 05:48:56;;;;;;;2.55;2.35;;;;;;;11.22;nan;99301.88;4963202;28;20773;-78
2022/10/23 05:51:37;;;;;;;5.15;2.97;;;;;;;11.22;nan;99333.44;4965321;28;20469;-78
2022/10/23 05:54:38;;;;;;;3.47;3.08;;;;;;;11.21;nan;99284.44;4866291;29;20712;-79
2022/10/23 05:57:33;;;;;;;2.80;2.60;;;;;;;11.19;nan;99343.34;4929671;28;20329;-78
2022/10/23 06:00:04;;;;;;;3.50;3.20;;;;;;;11.20;nan;99316.06;4961569;28;20594;-78
2022/10/23 06:02:41;;;;;;;3.65;3.35;;;;;;;11.18;nan;99282.03;4963946;28;20728;-77
2022/10/23 06:05:23;;;;;;;3.10;2.90;;;;;;;11.19;nan;99293.38;4980428;28;20219;-77
2022/10/23 06:08:08;;;;;;;5.47;4.07;;;;;;;11.26;nan;99331.41;4967687;28;20246;-78
2022/10/23 06:10:35;;;;;;;10.00;4.33;;;;;;;11.23;nan;99273.78;4972354;28;20188;-77
2022/10/23 06:13:03;;;;;;;5.25;2.63;;;;;;;11.23;nan;99277.28;4967417;28;20192;-77
2022/10/23 06:15:28;;;;;;;5.03;3.53;;;;;;;11.28;nan;99325.09;4968330;28;20191;-76
2022/10/23 06:18:04;;;;;;;5.53;4.15;;;;;;;11.33;nan;99318.69;4971060;28;20212;-77
2022/10/23 06:20:38;;;;;;;2.90;2.70;;;;;;;11.20;nan;99255.63;4977086;28;20195;-77
2022/10/23 06:23:17;;;;;;;5.82;3.97;;;;;;;11.26;nan;99287.56;4968241;28;20469;-79
2022/10/23 06:26:11;;;;;;;3.88;3.45;;;;;;;11.36;nan;99334.25;4967859;28;20192;-77
2022/10/23 06:28:47;;;;;;;5.32;3.53;;;;;;;11.34;nan;99260.75;4983262;28;20200;-77
2022/10/23 06:31:15;;;;;;;3.37;2.73;;;;;;;11.35;nan;99293.13;4962725;28;20196;-78
2022/10/23 06:33:40;;;;;;;2.80;2.50;;;;;;;11.41;nan;99329.50;4976925;28;20192;-79
2022/10/23 06:36:09;;;;;;;3.40;3.10;;;;;;;11.46;nan;99311.59;4969862;28;20211;-77
2022/10/23 06:38:39;;;;;;;7.28;2.35;;;;;;;11.50;nan;99300.75;4969086;28;20749;-77
2022/10/23 06:41:12;;;;;;;3.10;2.85;;;;;;;11.57;nan;99319.53;4982817;28;20181;-77
2022/10/23 06:43:38;;;;;;;3.20;2.60;;;;;;;11.66;nan;99324.13;4962917;28;20233;-79
2022/10/23 06:46:15;;;;;;;5.88;3.10;;;;;;;11.71;nan;99302.75;4972517;28;20315;-76
2022/10/23 06:48:59;;;;;;;11.93;3.63;;;;;;;11.79;nan;99320.63;4965769;28;20523;-78
2022/10/23 06:51:29;;;;;;;9.93;3.15;;;;;;;11.81;nan;99316.09;4961600;28;20691;-78
2022/10/23 06:53:55;;;;;;;3.30;2.50;;;;;;;11.88;nan;99318.19;4967955;28;20184;-77
2022/10/23 06:56:39;;;;;;;6.28;3.05;;;;;;;11.94;nan;99301.13;4968682;28;20350;-79
2022/10/23 06:59:06;;;;;;;4.28;2.40;;;;;;;11.99;nan;99316.53;4979729;28;20199;-76
2022/10/23 07:01:32;;;;;;;5.73;2.77;;;;;;;12.06;nan;99307.25;4968550;28;20177;-77
2022/10/23 07:03:58;;;;;;;2.83;2.13;;;;;;;12.09;nan;99286.78;4984182;28;20190;-79
2022/10/23 07:06:25;;;;;;;4.68;3.10;;;;;;;12.13;nan;99293.50;4966680;28;20467;-77
2022/10/23 07:08:51;;;;;;;3.15;2.60;;;;;;;12.20;nan;99303.56;4967133;28;20189;-77
2022/10/23 07:11:35;;;;;;;3.20;2.72;;;;;;;12.26;nan;99289.94;4967690;28;20418;-76
2022/10/23 07:14:01;;;;;;;12.77;3.55;;;;;;;12.36;nan;99290.94;4977398;28;21191;-77
2022/10/23 07:16:27;;;;;;;2.83;2.63;;;;;;;12.48;nan;99283.91;4979014;28;20204;-76
2022/10/23 07:18:58;;;;;;;3.60;3.15;;;;;;;12.58;nan;99282.22;4962841;28;20521;-77
2022/10/23 07:21:28;;;;;;;8.05;3.42;;;;;;;12.67;nan;99294.69;4965859;28;20243;-77
2022/10/23 07:24:01;;;;;;;4.05;2.58;;;;;;;12.76;nan;99301.03;4957805;28;20294;-78
2022/10/23 07:26:27;;;;;;;3.20;2.55;;;;;;;12.87;nan;99297.56;4961204;28;20219;-77
2022/10/23 07:28:56;;;;;;;4.30;3.60;;;;;;;12.94;nan;99299.63;4960316;28;20184;-77
2022/10/23 07:31:24;;;;;;;4.70;3.38;;;;;;;13.02;nan;99302.50;4975658;28;20271;-77
2022/10/23 07:34:10;;;;;;;3.22;2.92;;;;;;;13.10;nan;99285.22;4958125;28;20204;-78
2022/10/23 07:36:35;;;;;;;4.65;2.60;;;;;;;13.15;nan;99280.41;4974528;28;20263;-78
2022/10/23 07:39:01;;;;;;;3.27;2.53;;;;;;;13.20;nan;99289.63;4965875;28;20786;-78
2022/10/23 07:41:26;;;;;;;3.93;2.30;;;;;;;13.29;nan;99277.56;4969917;28;20283;-77
2022/10/23 07:43:51;;;;;;;6.43;2.87;;;;;;;13.36;nan;99278.72;4966244;28;20259;-77
2022/10/23 07:46:17;;;;;;;2.67;2.47;;;;;;;13.43;nan;99279.91;4964589;28;20211;-79
2022/10/23 07:48:42;;;;;;;4.30;2.60;;;;;;;13.50;nan;99281.09;4966608;28;20550;-76
2022/10/23 07:51:12;;;;;;;3.10;2.73;;;;;;;13.57;nan;99286.72;4964029;28;20656;-77
2022/10/23 07:53:43;;;;;;;3.20;2.88;;;;;;;13.65;nan;99284.28;4961625;28;20184;-77
2022/10/23 07:56:31;;;;;;;3.38;3.08;;;;;;;13.76;nan;99275.50;4947439;28;20903;-77
2022/10/23 07:59:12;;;;;;;4.13;3.47;;;;;;;13.84;nan;99283.63;4964545;28;20204;-77
2022/10/23 08:01:41;;;;;;;11.15;3.78;;;;;;;13.94;nan;99286.34;4961673;28;20815;-79
2022/10/23 08:04:09;;;;;;;7.28;3.55;;;;;;;14.05;nan;99290.75;4963245;28;20203;-77
2022/10/23 08:06:40;;;;;;;5.10;3.00;;;;;;;14.14;nan;99274.94;4977409;28;20286;-79
2022/10/23 08:09:06;;;;;;;2.90;2.40;;;;;;;14.27;nan;99266.84;4962805;28;20281;-77
2022/10/23 08:11:34;;;;;;;2.80;2.60;;;;;;;14.37;nan;99267.75;4979815;28;20625;-77
2022/10/23 08:14:03;;;;;;;2.72;2.53;;;;;;;14.51;nan;99277.13;4979650;28;20191;-78
2022/10/23 08:16:31;;;;;;;4.07;3.30;;;;;;;14.73;nan;99270.88;4966806;28;20229;-78
2022/10/23 08:19:16;;;;;;;4.13;2.47;;;;;;;15.59;nan;99265.13;4968250;28;20308;-78
2022/10/23 08:21:43;;;;;;;2.35;2.15;;;;;;;16.71;nan;99252.97;4970255;28;20213;-77
2022/10/23 08:24:13;;;;;;;4.10;2.70;;;;;;;17.88;nan;99249.69;4968252;28;20199;-77
2022/10/23 08:26:40;;;;;;;5.03;2.38;;;;;;;19.05;nan;99249.25;4964479;28;20610;-78
2022/10/23 08:29:07;;;;;;;3.08;2.20;;;;;;;20.08;nan;99243.63;4965611;28;20199;-78
2022/10/23 08:31:33;;;;;;;5.50;1.95;;;;;;;;;;4969727;28;20786;-79
2022/10/23 08:34:14;;;;;;;4.53;2.60;;;;;;;21.67;nan;99218.69;4968483;28;20230;-79
2022/10/23 08:36:41;;;;;;;2.33;2.00;;;;;;;22.28;nan;99217.69;4964957;28;20454;-80
2022/10/23 08:39:07;;;;;;;2.10;1.87;;;;;;;22.80;nan;99220.47;4959824;28;20443;-77
2022/10/23 08:41:42;;;;;;;3.93;2.20;;;;;;;23.29;nan;99217.19;4963235;28;20218;-78
2022/10/23 08:44:18;;;;;;;9.73;2.23;;;;;;;23.76;nan;99205.94;4968613;28;20435;-78
2022/10/23 08:50:27;;;;;;;2.30;2.10;;;;;;;24.42;nan;99208.28;4965427;28;21032;-79
2022/10/23 08:53:20;;;;;;;4.07;2.20;;;;;;;24.38;nan;99204.31;4961850;28;20945;-78
2022/10/23 08:56:00;;;;;;;2.93;2.67;;;;;;;24.18;nan;99206.88;4969424;28;20966;-78
2022/10/23 08:58:39;;;;;;;3.97;1.87;;;;;;;23.92;nan;99196.78;4961957;28;20411;-77
2022/10/23 09:01:39;;;;;;;2.13;1.93;;;;;;;23.58;nan;99190.25;4963559;28;20429;-77
2022/10/23 09:04:05;;;;;;;1.80;1.67;;;;;;;23.30;nan;99190.19;4967003;28;20530;-78
2022/10/23 09:06:54;;;;;;;2.83;1.97;;;;;;;23.10;nan;99187.28;4966036;28;20483;-80
2022/10/23 09:09:43;;;;;;;3.30;2.30;;;;;;;22.82;nan;99197.00;4963454;28;20576;-80
2022/10/23 09:12:19;;;;;;;3.50;1.97;;;;;;;22.36;nan;99199.88;4962760;28;20434;-78
2022/10/23 09:15:12;;;;;;;3.60;2.70;;;;;;;21.99;nan;99197.03;4966783;28;20413;-77
2022/10/23 09:17:40;;;;;;;2.53;1.70;;;;;;;21.68;nan;99194.44;4963904;28;20432;-80
2022/10/23 09:20:18;;;;;;;1.70;1.60;;;;;;;21.36;nan;99182.13;4964234;28;21015;-77
2022/10/23 09:22:44;;;;;;;2.50;2.00;;;;;;;21.10;nan;99180.63;4968722;28;20479;-78
2022/10/23 09:25:24;;;;;;;7.40;2.43;;;;;;;20.97;nan;99180.38;4966102;28;21382;-78
2022/10/23 09:27:53;;;;;;;4.77;2.00;;;;;;;20.85;nan;99169.25;4964997;28;20471;-77
2022/10/23 09:30:34;;;;;;;3.77;2.10;;;;;;;20.77;nan;99171.97;4963863;28;20678;-79
2022/10/23 09:33:11;;;;;;;3.03;1.70;;;;;;;20.70;nan;99162.97;4965770;28;20424;-80
2022/10/23 09:35:36;;;;;;;3.47;1.70;;;;;;;20.58;nan;99169.69;4960858;28;20549;-78
2022/10/23 09:38:01;;;;;;;6.23;1.70;;;;;;;20.46;nan;99174.53;4962192;28;20544;-77
2022/10/23 09:40:34;;;;;;;21.57;3.00;;;;;;;20.37;nan;99165.72;4960105;28;20203;-78
2022/10/23 09:43:11;;;;;;;5.80;2.10;;;;;;;20.30;nan;99151.41;4960682;28;20263;-78
2022/10/23 09:45:40;;;;;;;3.13;2.13;;;;;;;20.21;nan;99155.13;4962977;28;20427;-80
2022/10/23 09:48:09;;;;;;;3.83;3.47;;;;;;;20.11;nan;99156.13;4974332;28;20531;-78
2022/10/23 09:50:35;;;;;;;5.30;2.10;;;;;;;20.02;nan;99146.47;4965985;28;20448;-77
2022/10/23 09:53:01;;;;;;;5.33;2.90;;;;;;;19.94;nan;99145.66;4959549;28;20595;-78
2022/10/23 09:55:27;;;;;;;2.70;2.10;;;;;;;19.83;nan;99141.53;4964738;28;20724;-77
2022/10/23 09:57:53;;;;;;;4.43;3.03;;;;;;;19.64;nan;99151.50;4960072;28;20463;-77
2022/10/23 10:00:20;;;;;;;2.13;2.03;;;;;;;19.56;nan;99150.66;4961331;28;20428;-79
2022/10/23 10:02:59;;;;;;;3.70;2.83;;;;;;;19.47;nan;99152.50;4959415;28;20227;-79
2022/10/23 10:05:41;;;;;;;2.33;1.30;;;;;;;19.46;nan;99154.31;4978200;28;20489;-80
2022/10/23 10:08:45;;;;;;;1.77;1.23;;;;;;;19.46;nan;99151.63;4958219;28;20471;-80
2022/10/23 10:11:21;;;;;;;2.73;1.53;;;;;;;19.42;nan;99150.31;4958744;28;20893;-79
2022/10/23 10:13:55;;;;;;;3.37;1.57;;;;;;;19.38;nan;99154.31;4961297;28;20442;-77
2022/10/23 10:16:41;;;;;;;3.93;2.10;;;;;;;19.35;nan;99156.47;4963327;28;20508;-78
2022/10/23 10:19:15;;;;;;;2.37;2.17;;;;;;;19.37;nan;99157.97;4963451;28;20943;-77
2022/10/23 10:22:18;;;;;;;3.00;1.90;;;;;;;19.42;nan;99160.97;4962011;28;20427;-79
2022/10/23 10:24:54;;;;;;;3.93;1.73;;;;;;;19.44;nan;99155.47;4964520;28;20418;-79
2022/10/23 10:27:23;;;;;;;3.77;3.43;;;;;;;19.50;nan;99162.00;4960340;28;20944;-78
2022/10/23 10:30:09;;;;;;;4.27;3.10;;;;;;;19.53;nan;99162.47;4979952;28;20454;-77
2022/10/23 10:32:57;;;;;;;3.40;2.50;;;;;;;19.54;nan;99156.16;4963440;28;20427;-77
2022/10/23 10:35:47;;;;;;;4.40;2.57;;;;;;;19.59;nan;99161.81;4965140;28;20441;-79
2022/10/23 10:38:39;;;;;;;5.67;2.47;;;;;;;19.67;nan;99153.84;4962844;28;20491;-77
2022/10/23 10:41:18;;;;;;;6.40;2.60;;;;;;;;;;4965299;28;20445;-78
2022/10/23 10:44:11;;;;;;;3.50;2.23;;;;;;;19.83;nan;99141.53;4962552;28;21662;-77
2022/10/23 10:46:57;;;;;;;2.60;2.27;;;;;;;19.92;nan;99140.50;4966538;28;20556;-77
2022/10/23 10:49:41;;;;;;;3.30;2.07;;;;;;;20.03;nan;99140.13;4958099;28;20966;-77
2022/10/23 10:52:35;;;;;;;2.90;2.10;;;;;;;;;;4975737;28;20426;-77
2022/10/23 10:55:22;;;;;;;3.03;2.10;;;;;;;20.23;nan;99137.94;4970381;28;20499;-77
2022/10/23 10:57:56;;;;;;;3.73;1.73;;;;;;;20.31;nan;99139.75;4969228;28;20971;-78
2022/10/23 11:00:22;;;;;;;3.50;1.80;;;;;;;20.28;nan;99135.59;4962314;28;20459;-78
2022/10/23 11:02:51;;;;;;;1.97;1.50;;;;;;;20.26;nan;99126.09;4968461;28;20470;-77
2022/10/23 11:05:31;;;;;;;1.73;1.63;;;;;;;20.29;nan;99125.75;4963770;28;20526;-77
2022/10/23 11:08:23;;;;;;;2.27;1.70;;;;;;;20.32;nan;99117.41;4970742;23;20595;-82
2022/10/23 11:10:54;;;;;;;3.00;1.70;;;;;;;20.36;nan;99110.75;4956222;28;20479;-81
2022/10/23 11:13:34;;;;;;;2.10;1.73;;;;;;;20.41;nan;99113.69;4965733;28;20850;-81
2022/10/23 11:16:14;;;;;;;18.77;2.70;;;;;;;20.50;nan;99126.00;4966176;28;20440;-82
2022/10/23 11:18:43;;;;;;;1.73;1.57;;;;;;;20.52;nan;99101.81;4947717;28;20959;-81
2022/10/23 11:21:23;;;;;;;11.83;3.90;;;;;;;20.50;nan;99114.50;4948294;28;20491;-81
2022/10/23 11:24:14;;;;;;;3.77;2.03;;;;;;;20.42;nan;99107.38;4947365;28;20476;-80
2022/10/23 11:26:52;;;;;;;4.60;4.03;;;;;;;20.42;nan;99109.22;4948821;28;20515;-82
2022/10/23 11:29:29;;;;;;;4.40;1.90;;;;;;;20.41;nan;99103.00;4940352;28;20718;-79
2022/10/23 11:32:03;;;;;;;2.53;2.30;;;;;;;20.44;nan;99094.69;4940401;28;20491;-79
2022/10/23 11:34:47;;;;;;;2.87;2.13;;;;;;;20.52;nan;99089.31;4942950;28;20441;-80
2022/10/23 11:37:18;;;;;;;7.77;2.07;;;;;;;20.60;nan;99082.28;4943918;28;20534;-79
2022/10/23 11:39:57;;;;;;;1.77;1.47;;;;;;;;;;4943007;28;20428;-80
2022/10/23 11:42:38;;;;;;;2.13;1.30;;;;;;;20.65;nan;99078.09;4947654;28;20835;-80
2022/10/23 11:45:24;;;;;;;2.80;1.50;;;;;;;20.65;nan;99078.09;4947692;28;20476;-80
2022/10/23 11:48:33;;;;;;;1.80;1.60;;;;;;;20.69;nan;99070.59;4945293;28;20526;-80
2022/10/23 11:50:59;;;;;;;3.07;1.93;;;;;;;20.72;nan;99057.72;4941201;28;20453;-81
2022/10/23 11:53:30;;;;;;;2.00;1.80;;;;;;;20.78;nan;99051.66;4948951;28;20455;-80
2022/10/23 11:56:19;;;;;;;3.00;1.60;;;;;;;20.84;nan;99047.44;4948647;28;20201;-80
2022/10/23 11:58:53;;;;;;;4.23;1.87;;;;;;;20.91;nan;99047.59;4939427;28;20451;-80
2022/10/23 12:01:38;;;;;;;3.53;1.57;;;;;;;21.00;nan;99044.66;4945225;28;20433;-80
2022/10/23 12:04:12;;;;;;;5.53;1.97;;;;;;;21.12;nan;99044.25;4946647;28;20454;-80
2022/10/23 12:06:40;;;;;;;2.50;1.50;;;;;;;21.14;nan;99039.56;4947409;28;20819;-81
2022/10/23 12:09:26;;;;;;;2.40;1.60;;;;;;;21.14;nan;99036.88;4943992;28;20950;-80
2022/10/23 12:12:13;;;;;;;2.13;1.80;;;;;;;21.18;nan;99032.84;4948993;28;20444;-80
2022/10/23 12:14:49;;;;;;;1.40;1.30;;;;;;;21.23;nan;99024.31;4951318;28;20438;-81
2022/10/23 12:17:29;;;;;;;4.93;1.87;;;;;;;21.30;nan;99012.69;4948134;28;21108;-80
2022/10/23 12:20:12;;;;;;;5.00;2.40;;;;;;;21.37;nan;99019.03;4948482;28;20496;-80
2022/10/23 12:22:55;;;;;;;4.60;1.90;;;;;;;21.43;nan;99012.13;4947994;28;20531;-81
2022/10/23 12:25:27;;;;;;;2.10;1.70;;;;;;;21.44;nan;99008.41;4948431;28;20449;-81
2022/10/23 12:28:25;;;;;;;5.90;2.03;;;;;;;21.46;nan;99008.25;4946483;28;20540;-80